Time;durP1;ratioP1;P1;durP2;ratioP2;P2;SDS_P1;SDS_P2;PMS_P1;PMS_P2;Temp;Humidity;BMP_temperature;BMP_pressure;BME280_temperature;BME280_humidity;BME280_pressure;Samples;Min_cycle;Max_cycle;Signal;HPM_P1;HPM_P2
2024/02/24 00:03:17;;;;;;;5.38;3.17;;;14.90;99.90;;;;;;10468239;28;20078;-61
2024/02/24 00:08:19;;;;;;;10.10;3.03;;;15.50;99.90;;;;;;10460259;28;20083;-61
2024/02/24 00:13:22;;;;;;;7.82;2.40;;;15.50;99.90;;;;;;10462391;28;20052;-63
2024/02/24 00:18:25;;;;;;;7.55;3.28;;;15.50;99.90;;;;;;10461985;28;20174;-61
2024/02/24 00:23:27;;;;;;;8.43;3.37;;;15.40;99.90;;;;;;10461899;28;20209;-61
2024/02/24 00:28:30;;;;;;;4.63;2.87;;;15.40;99.90;;;;;;10465351;28;20901;-61
2024/02/24 00:33:35;;;;;;;3.58;2.10;;;15.30;99.90;;;;;;10467573;28;20523;-62
2024/02/24 00:38:37;;;;;;;6.05;2.30;;;15.30;99.90;;;;;;10468712;28;20606;-62
2024/02/24 00:43:41;;;;;;;8.23;3.35;;;14.90;99.90;;;;;;10462852;28;20641;-61
2024/02/24 00:48:43;;;;;;;7.95;3.88;;;14.90;99.90;;;;;;10470398;28;20052;-60
2024/02/24 00:53:45;;;;;;;6.20;3.10;;;15.00;99.90;;;;;;10472029;28;20076;-61
2024/02/24 00:58:48;;;;;;;6.93;2.73;;;14.80;99.90;;;;;;10468535;28;20814;-61
2024/02/24 01:03:50;;;;;;;8.82;3.30;;;14.40;99.90;;;;;;10469037;28;20063;-62
2024/02/24 01:08:52;;;;;;;11.70;4.00;;;14.60;99.90;;;;;;10472023;28;20055;-61
2024/02/24 01:13:56;;;;;;;8.93;3.00;;;14.90;99.90;;;;;;10470410;28;20495;-61
2024/02/24 01:18:58;;;;;;;7.05;2.63;;;14.60;99.90;;;;;;10464348;28;20048;-61
2024/02/24 01:24:01;;;;;;;6.60;2.85;;;14.40;99.90;;;;;;10470539;28;20486;-61
2024/02/24 01:29:04;;;;;;;4.32;2.55;;;14.30;99.90;;;;;;10467663;28;20048;-61
2024/02/24 01:34:07;;;;;;;3.60;2.15;;;14.20;99.90;;;;;;10476896;28;20059;-61
2024/02/24 01:39:09;;;;;;;;;;;14.00;99.90;;;;;;10468190;28;20055;-61
2024/02/24 01:44:18;;;;;;;6.43;2.42;;;14.20;99.90;;;;;;10464276;28;20007;-61
2024/02/24 01:49:20;;;;;;;8.30;4.22;;;14.30;99.90;;;;;;10472255;28;20078;-61
2024/02/24 01:54:22;;;;;;;8.53;3.17;;;14.30;99.90;;;;;;10464491;28;20052;-62
2024/02/24 01:59:25;;;;;;;6.47;3.23;;;14.10;99.90;;;;;;10469541;28;20048;-62
2024/02/24 02:04:28;;;;;;;6.45;2.78;;;14.20;99.90;;;;;;10474438;28;20048;-63
2024/02/24 02:09:30;;;;;;;8.00;3.77;;;14.10;99.90;;;;;;10465956;28;20051;-62
2024/02/24 02:14:33;;;;;;;5.63;3.07;;;14.40;99.90;;;;;;10473548;28;20520;-62
2024/02/24 02:19:35;;;;;;;5.20;2.33;;;14.50;99.90;;;;;;10475275;28;20040;-61
2024/02/24 02:24:39;;;;;;;9.25;3.35;;;14.20;99.90;;;;;;10467667;28;20075;-60
2024/02/24 02:29:41;;;;;;;6.53;3.25;;;13.80;99.90;;;;;;10470292;28;20225;-64
2024/02/24 02:34:43;;;;;;;4.50;2.47;;;13.80;99.90;;;;;;10466444;28;20508;-64
2024/02/24 02:39:47;;;;;;;6.33;3.50;;;14.40;99.90;;;;;;10472893;28;20040;-61
2024/02/24 02:44:49;;;;;;;4.25;2.45;;;14.40;99.90;;;;;;10473935;28;20060;-61
2024/02/24 02:49:52;;;;;;;6.97;2.27;;;14.40;99.90;;;;;;10481282;28;20055;-61
2024/02/24 02:54:55;;;;;;;5.90;2.78;;;14.70;99.90;;;;;;10472566;28;20438;-61
2024/02/24 02:59:57;;;;;;;6.25;2.90;;;14.70;99.90;;;;;;10470147;28;20835;-61
2024/02/24 03:04:59;;;;;;;6.27;2.47;;;14.80;99.90;;;;;;10465836;28;20138;-62
2024/02/24 03:10:03;;;;;;;11.57;2.90;;;14.50;99.90;;;;;;10466422;28;20049;-61
2024/02/24 03:15:07;;;;;;;6.45;3.00;;;14.40;99.90;;;;;;10471101;28;20048;-62
2024/02/24 03:20:11;;;;;;;3.70;2.28;;;14.10;99.90;;;;;;10469752;28;20040;-62
2024/02/24 03:25:15;;;;;;;4.60;2.60;;;14.40;99.90;;;;;;10467386;28;20070;-61
2024/02/24 03:30:17;;;;;;;5.32;2.90;;;14.40;99.90;;;;;;10463810;28;20727;-63
2024/02/24 03:35:19;;;;;;;4.38;3.00;;;14.30;99.90;;;;;;10465182;28;20053;-61
2024/02/24 03:40:22;;;;;;;5.63;2.97;;;14.10;99.90;;;;;;10471829;28;20548;-61
2024/02/24 03:45:24;;;;;;;8.95;3.00;;;13.80;99.90;;;;;;10461369;28;20045;-62
2024/02/24 03:50:26;;;;;;;4.50;2.70;;;14.30;99.90;;;;;;10471447;28;20057;-62
2024/02/24 03:55:30;;;;;;;4.87;2.27;;;14.00;99.90;;;;;;10469174;28;20309;-62
2024/02/24 04:15:32;;;;;;;5.68;2.80;;;11.90;99.90;;;;;;10601028;27;20127;-61
2024/02/24 04:20:34;;;;;;;13.70;3.30;;;12.20;99.90;;;;;;10609053;27;21176;-61
2024/02/24 04:25:36;;;;;;;6.40;3.20;;;13.00;99.90;;;;;;10606219;27;20054;-61
2024/02/24 04:30:40;;;;;;;7.70;2.70;;;13.40;99.90;;;;;;10613325;27;20061;-61
2024/02/24 04:35:42;;;;;;;5.90;2.80;;;13.50;99.90;;;;;;10611377;27;20107;-62
2024/02/24 04:40:44;;;;;;;5.65;3.15;;;13.60;99.90;;;;;;10608423;27;20286;-61
2024/02/24 04:45:48;;;;;;;7.13;3.37;;;13.70;99.90;;;;;;10596351;27;20425;-61
2024/02/24 04:50:50;;;;;;;7.03;3.08;;;13.80;99.90;;;;;;10607192;27;20212;-61
2024/02/24 04:55:52;;;;;;;4.47;2.73;;;13.80;99.90;;;;;;10607397;27;20054;-61
2024/02/24 05:00:55;;;;;;;3.93;2.60;;;14.00;99.90;;;;;;10605047;27;20062;-62
2024/02/24 05:05:57;;;;;;;6.65;3.17;;;14.00;99.90;;;;;;10606770;27;20220;-62
2024/02/24 05:11:00;;;;;;;5.50;2.93;;;14.00;99.90;;;;;;10603115;27;20043;-63
2024/02/24 05:16:05;;;;;;;7.35;3.25;;;14.00;99.90;;;;;;10607631;27;20054;-62
2024/02/24 05:21:08;;;;;;;8.60;3.72;;;14.20;99.90;;;;;;10606367;27;20537;-62
2024/02/24 05:26:10;;;;;;;6.10;3.47;;;13.80;99.90;;;;;;10578956;27;20826;-61
2024/02/24 05:31:14;;;;;;;7.05;3.35;;;14.00;99.90;;;;;;10575255;27;20051;-61
2024/02/24 05:36:16;;;;;;;4.97;3.08;;;14.00;99.90;;;;;;10578188;27;20054;-62
2024/02/24 05:41:18;;;;;;;6.90;3.10;;;13.70;99.90;;;;;;10581439;27;20067;-63
2024/02/24 05:46:21;;;;;;;7.80;2.90;;;13.10;99.90;;;;;;10591876;27;20055;-62
2024/02/24 05:51:24;;;;;;;5.45;2.63;;;13.00;99.90;;;;;;10579968;27;20058;-62
2024/02/24 05:56:26;;;;;;;;;;;13.90;99.90;;;;;;10572704;27;20059;-61
2024/02/24 06:01:29;;;;;;;4.30;2.22;;;14.30;99.90;;;;;;10576762;27;19923;-62
2024/02/24 06:06:31;;;;;;;2.97;2.30;;;14.30;99.90;;;;;;10571842;27;20051;-60
2024/02/24 06:11:33;;;;;;;3.20;2.05;;;14.40;99.90;;;;;;10575840;27;20051;-61
2024/02/24 06:16:36;;;;;;;4.47;1.97;;;14.00;99.90;;;;;;10574676;27;20059;-61
2024/02/24 06:21:39;;;;;;;3.72;1.95;;;14.10;99.90;;;;;;10572507;27;20054;-61
2024/02/24 06:26:41;;;;;;;3.08;1.92;;;14.50;99.90;;;;;;10577507;27;20088;-61
2024/02/24 06:31:44;;;;;;;1.90;1.63;;;14.70;99.90;;;;;;10571702;27;20043;-61
2024/02/24 06:36:46;;;;;;;3.42;2.25;;;14.70;99.90;;;;;;10568790;27;20093;-62
2024/02/24 06:41:48;;;;;;;5.70;2.57;;;14.70;99.90;;;;;;10569940;27;20062;-61
2024/02/24 06:46:52;;;;;;;2.40;2.20;;;14.70;99.90;;;;;;10570377;27;20052;-63
2024/02/24 06:51:55;;;;;;;3.30;2.65;;;14.40;99.90;;;;;;10568433;27;20082;-61
2024/02/24 06:56:57;;;;;;;3.97;2.80;;;14.10;99.90;;;;;;10570769;27;20055;-62
2024/02/24 07:02:00;;;;;;;4.63;1.80;;;12.70;99.90;;;;;;10569399;27;20483;-63
2024/02/24 07:07:03;;;;;;;12.57;3.78;;;14.60;99.90;;;;;;10569361;27;20073;-63
2024/02/24 07:12:06;;;;;;;4.30;3.20;;;13.70;99.90;;;;;;10565985;27;20050;-61
2024/02/24 07:17:10;;;;;;;3.28;2.40;;;13.20;99.90;;;;;;10565911;27;20050;-62
2024/02/24 07:22:14;;;;;;;2.83;2.10;;;14.10;99.90;;;;;;10566817;27;20046;-62
2024/02/24 07:27:16;;;;;;;6.32;2.22;;;13.80;99.90;;;;;;10566901;27;20078;-61
2024/02/24 07:32:20;;;;;;;3.63;2.58;;;14.10;99.90;;;;;;10570082;27;20138;-61
2024/02/24 07:37:22;;;;;;;3.65;2.50;;;14.10;99.90;;;;;;10558918;27;20482;-60
2024/02/24 07:42:25;;;;;;;3.20;2.20;;;12.40;99.90;;;;;;10571282;27;20043;-61
2024/02/24 07:47:28;;;;;;;;;;;13.00;99.90;;;;;;10570541;27;20512;-62
2024/02/24 07:52:31;;;;;;;4.68;3.17;;;12.40;99.90;;;;;;10581806;27;19930;-60
2024/02/24 07:57:33;;;;;;;8.45;2.90;;;12.90;99.90;;;;;;10564488;27;20742;-60
2024/02/24 08:02:36;;;;;;;7.53;3.75;;;12.80;99.90;;;;;;10567640;27;20055;-61
2024/02/24 08:07:39;;;;;;;5.18;3.22;;;10.30;99.90;;;;;;10575033;27;20955;-61
2024/02/24 08:12:40;;;;;;;3.13;2.77;;;11.90;99.90;;;;;;10572041;28;20055;-59
2024/02/24 08:17:44;;;;;;;3.88;2.28;;;13.70;99.90;;;;;;10563544;28;20537;-61
2024/02/24 08:22:47;;;;;;;6.35;5.25;;;13.70;99.90;;;;;;10565947;27;20702;-61
2024/02/24 08:27:49;;;;;;;14.82;4.78;;;11.00;99.90;;;;;;10567808;27;20500;-61
2024/02/24 08:32:53;;;;;;;8.60;4.20;;;10.10;99.90;;;;;;10555853;28;20043;-61
2024/02/24 08:37:56;;;;;;;3.58;3.13;;;9.50;99.90;;;;;;10560004;28;20082;-63
2024/02/24 08:42:58;;;;;;;7.15;2.85;;;12.50;99.90;;;;;;10559228;28;20174;-61
2024/02/24 08:48:01;;;;;;;4.95;2.90;;;12.90;99.90;;;;;;10558603;28;20071;-62
2024/02/24 08:53:03;;;;;;;3.20;2.55;;;12.00;99.90;;;;;;10561365;27;20047;-63
2024/02/24 08:58:07;;;;;;;6.30;3.25;;;10.10;99.90;;;;;;10557711;27;20086;-61
2024/02/24 09:03:11;;;;;;;3.70;2.10;;;11.90;99.90;;;;;;10569664;27;20047;-62
2024/02/24 09:08:13;;;;;;;4.20;2.97;;;13.50;99.90;;;;;;10570908;27;20054;-62
2024/02/24 09:13:16;;;;;;;3.87;2.40;;;13.80;99.90;;;;;;10567505;27;20542;-62
2024/02/24 09:18:21;;;;;;;13.88;6.47;;;12.50;99.90;;;;;;10570944;27;20071;-63
2024/02/24 09:23:24;;;;;;;1.65;1.30;;;10.70;99.90;;;;;;10572044;27;20047;-62
2024/02/24 09:28:26;;;;;;;6.97;3.47;;;13.40;99.90;;;;;;10572745;27;20047;-63
2024/02/24 09:33:31;;;;;;;3.15;2.67;;;13.40;99.90;;;;;;10570606;27;21399;-63
2024/02/24 09:38:34;;;;;;;6.32;2.80;;;12.30;99.90;;;;;;10574131;27;20068;-62
2024/02/24 09:43:36;;;;;;;4.07;3.05;;;10.50;99.90;;;;;;10571826;27;20162;-62
2024/02/24 09:48:41;;;;;;;5.57;2.70;;;11.80;99.90;;;;;;10574717;27;20111;-62
2024/02/24 09:53:44;;;;;;;4.32;2.55;;;11.10;99.90;;;;;;10565447;27;20621;-62
2024/02/24 09:58:47;;;;;;;3.90;2.33;;;9.70;99.90;;;;;;10570664;27;20078;-61
2024/02/24 10:03:51;;;;;;;3.47;1.88;;;11.00;99.90;;;;;;10574559;27;20136;-63
2024/02/24 10:08:53;;;;;;;4.40;2.22;;;9.60;99.90;;;;;;10563156;27;20300;-60
2024/02/24 10:13:55;;;;;;;2.40;2.08;;;9.10;99.90;;;;;;10566996;27;20063;-60
2024/02/24 10:19:01;;;;;;;6.68;3.63;;;10.10;99.90;;;;;;10561633;27;20093;-61
2024/02/24 10:24:03;;;;;;;9.27;2.45;;;8.10;99.90;;;;;;10571246;27;20129;-60
2024/02/24 10:29:06;;;;;;;4.40;3.30;;;8.50;99.90;;;;;;10561636;27;20138;-61
2024/02/24 10:34:09;;;;;;;;;;;8.00;99.90;;;;;;10561616;27;20162;-62
2024/02/24 10:39:13;;;;;;;4.55;3.45;;;10.10;99.90;;;;;;10562227;27;19958;-61
2024/02/24 10:44:15;;;;;;;8.52;4.05;;;9.60;99.90;;;;;;10566699;27;20245;-61
2024/02/24 10:49:19;;;;;;;3.47;2.13;;;8.10;99.90;;;;;;10559952;27;20674;-61
2024/02/24 10:54:23;;;;;;;6.57;2.35;;;11.20;99.90;;;;;;10569222;27;20050;-61
2024/02/24 10:59:29;;;;;;;5.03;3.10;;;9.60;99.90;;;;;;10566412;27;20055;-61
2024/02/24 11:04:34;;;;;;;4.32;2.78;;;8.50;99.90;;;;;;10565634;27;20748;-61
2024/02/24 11:09:38;;;;;;;5.07;4.18;;;9.50;99.90;;;;;;10566948;27;20043;-61
2024/02/24 11:14:42;;;;;;;4.63;4.05;;;8.30;99.90;;;;;;10572021;27;20791;-62
2024/02/24 11:19:47;;;;;;;3.58;2.40;;;9.60;99.90;;;;;;10565491;27;20906;-64
2024/02/24 11:25:00;;;;;;;2.85;2.30;;;12.70;99.90;;;;;;10564660;27;20068;-62
2024/02/24 11:30:17;;;;;;;;;;;12.30;99.90;;;;;;10566247;27;20054;-61
2024/02/24 11:35:20;;;;;;;4.22;2.80;;;12.50;99.90;;;;;;10559929;27;19928;-61
2024/02/24 11:40:24;;;;;;;4.93;3.80;;;12.30;99.90;;;;;;10566191;27;20040;-63
2024/02/24 11:45:26;;;;;;;4.32;3.63;;;10.10;99.90;;;;;;10561858;27;20060;-61
2024/02/24 11:50:30;;;;;;;7.47;3.35;;;8.90;99.90;;;;;;10564020;27;20055;-63
2024/02/24 11:55:32;;;;;;;4.85;2.78;;;10.40;99.90;;;;;;10566108;27;20051;-60
2024/02/24 12:00:35;;;;;;;7.82;3.35;;;11.90;99.90;;;;;;10565295;27;20512;-60
2024/02/24 12:05:45;;;;;;;2.93;2.57;;;10.90;99.90;;;;;;10566167;27;20063;-62
2024/02/24 12:10:50;;;;;;;4.43;2.50;;;10.90;99.90;;;;;;10563072;27;20612;-64
2024/02/24 12:15:57;;;;;;;2.95;2.63;;;12.10;99.90;;;;;;10567301;28;20066;-63
2024/02/24 12:21:01;;;;;;;2.97;2.67;;;12.60;99.90;;;;;;10563800;28;20051;-61
2024/02/24 12:26:17;;;;;;;3.30;3.00;;;13.70;99.90;;;;;;10563805;28;20816;-62
2024/02/24 12:31:19;;;;;;;3.90;2.50;;;12.60;99.90;;;;;;10565583;28;20817;-62
2024/02/24 12:36:26;;;;;;;3.00;2.35;;;13.10;99.90;;;;;;10570138;27;20577;-63
2024/02/24 12:41:28;;;;;;;3.28;2.13;;;12.60;99.90;;;;;;10574829;27;20194;-60
2024/02/24 12:46:30;;;;;;;3.70;2.30;;;12.80;99.90;;;;;;10574630;27;20051;-62
2024/02/24 12:51:34;;;;;;;4.67;3.53;;;13.50;99.90;;;;;;10572501;27;20051;-63
2024/02/24 12:56:38;;;;;;;5.47;2.80;;;14.40;99.90;;;;;;10571766;27;20047;-62
2024/02/24 13:01:40;;;;;;;6.13;2.53;;;14.60;99.90;;;;;;10572242;27;20484;-63
2024/02/24 13:06:44;;;;;;;3.87;1.97;;;13.50;99.90;;;;;;10568331;27;20220;-62
2024/02/24 13:11:49;;;;;;;2.38;2.13;;;14.20;99.90;;;;;;10570290;27;20485;-62
2024/02/24 13:16:51;;;;;;;3.13;1.73;;;12.40;99.90;;;;;;10562750;27;20211;-61
2024/02/24 13:21:55;;;;;;;5.63;2.00;;;14.10;99.90;;;;;;10573706;27;20688;-61
2024/02/24 13:27:00;;;;;;;3.28;1.75;;;12.10;99.90;;;;;;10570478;27;20039;-62
2024/02/24 13:32:01;;;;;;;5.65;1.83;;;12.00;99.90;;;;;;10566704;27;20039;-60
2024/02/24 13:37:05;;;;;;;5.25;2.28;;;12.70;99.90;;;;;;10570927;27;21463;-62
2024/02/24 13:42:07;;;;;;;5.18;3.08;;;12.30;99.90;;;;;;10567102;27;20162;-61
2024/02/24 13:47:10;;;;;;;3.25;2.40;;;11.30;99.90;;;;;;10565286;27;20052;-61
2024/02/24 13:52:13;;;;;;;3.28;2.65;;;9.90;99.90;;;;;;10567813;27;20058;-61
2024/02/24 13:57:16;;;;;;;4.28;2.70;;;10.40;99.90;;;;;;10569903;27;20043;-61
2024/02/24 14:02:19;;;;;;;3.45;2.50;;;11.50;99.90;;;;;;10567365;27;20055;-61
2024/02/24 14:07:23;;;;;;;3.63;2.08;;;9.90;99.90;;;;;;10567752;27;20383;-62
2024/02/24 14:12:25;;;;;;;4.95;2.55;;;12.10;99.90;;;;;;10574377;27;20885;-61
2024/02/24 14:17:29;;;;;;;2.42;1.73;;;10.60;99.90;;;;;;10573565;27;20039;-61
2024/02/24 14:22:32;;;;;;;1.95;1.63;;;11.00;99.90;;;;;;10581229;27;20047;-59
2024/02/24 14:27:34;;;;;;;2.65;1.63;;;12.80;99.90;;;;;;10571059;27;20060;-59
2024/02/24 14:32:38;;;;;;;3.00;2.25;;;15.60;99.90;;;;;;10568495;27;20058;-62
2024/02/24 14:37:41;;;;;;;2.40;1.83;;;14.80;99.90;;;;;;10564659;27;20059;-60
2024/02/24 14:42:43;;;;;;;5.55;2.38;;;13.00;99.90;;;;;;10569432;27;20053;-62
2024/02/24 14:47:46;;;;;;;3.90;1.95;;;12.30;99.90;;;;;;10569870;27;20050;-61
2024/02/24 14:52:49;;;;;;;2.33;1.50;;;14.40;99.90;;;;;;10572892;27;20075;-61
2024/02/24 14:57:51;;;;;;;5.60;2.10;;;15.50;99.90;;;;;;10564321;27;20105;-61
2024/02/24 15:02:54;;;;;;;3.53;1.70;;;15.70;99.90;;;;;;10563148;27;20913;-60
2024/02/24 15:07:58;;;;;;;6.75;1.15;;;15.90;99.90;;;;;;10562764;27;20043;-61
2024/02/24 15:13:00;;;;;;;10.18;1.95;;;15.90;99.90;;;;;;10568022;27;20059;-61
2024/02/24 15:18:03;;;;;;;2.70;1.33;;;15.70;99.90;;;;;;10566071;27;20469;-60
2024/02/24 15:23:07;;;;;;;4.43;1.92;;;15.70;99.90;;;;;;10566362;27;20058;-61
2024/02/24 15:28:09;;;;;;;3.58;1.27;;;14.80;99.90;;;;;;10558699;27;20047;-61
2024/02/24 15:33:11;;;;;;;5.60;1.17;;;15.10;99.90;;;;;;10561608;27;20551;-61
2024/02/24 15:38:16;;;;;;;6.57;1.60;;;13.30;99.90;;;;;;10555257;27;20039;-60
2024/02/24 15:43:18;;;;;;;3.83;1.48;;;12.90;99.90;;;;;;10560117;27;20500;-60
2024/02/24 15:48:20;;;;;;;5.53;1.67;;;13.20;99.90;;;;;;10561021;27;20152;-64
2024/02/24 15:53:23;;;;;;;3.55;2.08;;;15.10;99.90;;;;;;10564972;27;20140;-61
2024/02/24 15:58:26;;;;;;;4.88;2.28;;;11.80;99.90;;;;;;10560293;27;20054;-61
2024/02/24 16:03:28;;;;;;;6.70;2.53;;;12.70;99.90;;;;;;10562822;27;20063;-62
2024/02/24 16:08:31;;;;;;;5.95;1.60;;;13.50;99.90;;;;;;10560654;27;20063;-61
2024/02/24 16:13:34;;;;;;;3.55;1.35;;;13.10;99.90;;;;;;10558982;27;20196;-62
2024/02/24 16:18:40;;;;;;;5.22;1.98;;;14.40;99.90;;;;;;10566041;28;20137;-60
2024/02/24 16:23:44;;;;;;;4.80;1.48;;;13.40;99.90;;;;;;10563862;28;20062;-62
2024/02/24 16:28:46;;;;;;;5.88;1.98;;;13.50;99.90;;;;;;10564165;28;20054;-61
2024/02/24 16:33:50;;;;;;;3.57;1.37;;;15.10;99.90;;;;;;10557155;28;20413;-61
2024/02/24 16:38:55;;;;;;;4.63;1.45;;;15.30;99.90;;;;;;10555805;27;20077;-61
2024/02/24 16:43:57;;;;;;;7.03;1.50;;;15.90;99.90;;;;;;10555526;28;20051;-60
2024/02/24 16:48:59;;;;;;;6.80;1.43;;;16.40;99.90;;;;;;10556104;28;20926;-62
2024/02/24 16:54:02;;;;;;;2.88;1.27;;;16.60;99.90;;;;;;10559292;28;20149;-62
2024/02/24 16:59:05;;;;;;;4.93;1.30;;;16.80;99.90;;;;;;10563102;28;20055;-60
2024/02/24 17:04:07;;;;;;;6.55;1.30;;;16.60;99.90;;;;;;10556472;28;20564;-61
2024/02/24 17:09:10;;;;;;;1.10;0.95;;;16.60;99.90;;;;;;10560131;28;20237;-61
2024/02/24 17:14:13;;;;;;;7.25;1.67;;;16.50;99.90;;;;;;10558048;28;20086;-60
2024/02/24 17:19:15;;;;;;;6.88;1.98;;;16.20;99.90;;;;;;10557079;27;20158;-61
2024/02/24 17:24:19;;;;;;;9.77;1.48;;;15.60;99.90;;;;;;10567924;27;20638;-63
2024/02/24 17:29:21;;;;;;;4.45;1.83;;;15.70;99.90;;;;;;10566912;27;20046;-61
2024/02/24 17:34:23;;;;;;;3.30;1.70;;;15.40;99.90;;;;;;10573459;27;20615;-60
2024/02/24 17:39:28;;;;;;;8.57;1.53;;;15.60;99.90;;;;;;10569665;27;20050;-61
2024/02/24 17:44:30;;;;;;;3.25;1.27;;;16.20;99.90;;;;;;10572194;27;20039;-61
2024/02/24 17:49:32;;;;;;;2.78;1.40;;;16.60;99.90;;;;;;10571345;27;20035;-60
2024/02/24 17:54:36;;;;;;;10.82;1.52;;;16.70;99.90;;;;;;10564909;27;20067;-61
2024/02/24 17:59:39;;;;;;;3.45;1.00;;;16.50;99.90;;;;;;10568118;27;20047;-61
2024/02/24 18:04:44;;;;;;;2.67;1.17;;;16.60;99.90;;;;;;10571242;27;20055;-60
2024/02/24 18:09:47;;;;;;;5.60;1.63;;;16.70;99.90;;;;;;10564559;27;20653;-61
2024/02/24 18:14:49;;;;;;;6.35;1.45;;;16.40;99.90;;;;;;10567674;27;20482;-63
2024/02/24 18:19:53;;;;;;;4.57;1.30;;;16.60;99.90;;;;;;10564785;27;20606;-62
2024/02/24 18:24:57;;;;;;;3.45;1.23;;;16.10;99.90;;;;;;10566552;27;20365;-61
2024/02/24 18:29:59;;;;;;;6.75;1.58;;;15.50;99.90;;;;;;10563226;27;21509;-60
2024/02/24 18:35:01;;;;;;;3.13;1.23;;;15.50;99.90;;;;;;10569116;27;20050;-62
2024/02/24 18:40:05;;;;;;;4.50;1.17;;;14.80;99.90;;;;;;10558283;27;21430;-61
2024/02/24 18:45:08;;;;;;;6.68;1.50;;;12.80;99.90;;;;;;10562414;27;20131;-60
2024/02/24 18:50:11;;;;;;;6.20;1.30;;;12.60;99.90;;;;;;10561571;27;20112;-62
2024/02/24 18:55:14;;;;;;;4.38;1.33;;;14.80;99.90;;;;;;10559798;27;20444;-60
2024/02/24 19:00:17;;;;;;;3.28;1.35;;;15.20;99.90;;;;;;10560793;27;21013;-61
2024/02/24 19:05:19;;;;;;;2.00;1.10;;;14.00;99.90;;;;;;10555644;27;20078;-60
2024/02/24 19:10:22;;;;;;;0.63;0.63;;;11.20;99.90;;;;;;10571227;27;20066;-61
2024/02/24 19:15:24;;;;;;;0.17;0.17;;;11.70;99.90;;;;;;10563259;27;20055;-61
2024/02/24 19:20:27;;;;;;;0.10;0.10;;;13.30;99.90;;;;;;10563115;27;20097;-61
2024/02/24 19:25:31;;;;;;;0.20;0.20;;;15.00;99.90;;;;;;10561242;27;20789;-61
2024/02/24 19:30:33;;;;;;;0.10;0.10;;;15.70;99.90;;;;;;10560573;27;20058;-60
2024/02/24 19:35:37;;;;;;;0.07;0.07;;;16.20;99.90;;;;;;10560900;27;20120;-59
2024/02/24 19:40:41;;;;;;;0.10;0.10;;;16.10;99.90;;;;;;10566120;27;20596;-62
2024/02/24 19:45:43;;;;;;;0.10;0.10;;;16.00;99.90;;;;;;10560864;27;20128;-60
2024/02/24 19:50:48;;;;;;;0.00;0.00;;;16.00;99.90;;;;;;10559435;27;20059;-61
2024/02/24 19:55:51;;;;;;;0.03;0.03;;;16.00;99.90;;;;;;10565256;27;20043;-64
2024/02/24 20:00:53;;;;;;;0.10;0.10;;;16.00;99.90;;;;;;10561484;27;20137;-61
2024/02/24 20:05:56;;;;;;;1.55;1.45;;;16.00;99.90;;;;;;10559374;27;20047;-63
2024/02/24 20:10:59;;;;;;;0.00;0.00;;;15.80;99.90;;;;;;10559305;27;20063;-64
2024/02/24 20:16:01;;;;;;;0.10;0.10;;;15.00;99.90;;;;;;10557731;27;20039;-63
2024/02/24 20:21:05;;;;;;;0.00;0.00;;;15.50;99.90;;;;;;10561470;28;22545;-60
2024/02/24 20:26:09;;;;;;;0.52;0.52;;;15.70;99.90;;;;;;10557835;28;20535;-61
2024/02/24 20:31:11;;;;;;;0.20;0.20;;;15.70;99.90;;;;;;10560878;27;20127;-62
2024/02/24 20:36:13;;;;;;;0.00;0.00;;;15.60;99.90;;;;;;10567184;28;20055;-61
2024/02/24 20:41:17;;;;;;;1.25;0.98;;;15.70;99.90;;;;;;10562889;28;20516;-62
2024/02/24 20:46:19;;;;;;;0.75;0.28;;;15.70;99.90;;;;;;10563698;27;20066;-62
2024/02/24 20:51:21;;;;;;;0.00;0.00;;;15.70;99.90;;;;;;10555225;28;20051;-62
2024/02/24 20:56:25;;;;;;;0.00;0.00;;;15.80;99.90;;;;;;10567939;27;20081;-62
2024/02/24 21:01:29;;;;;;;0.10;0.10;;;15.70;99.90;;;;;;10568124;27;20050;-62
2024/02/24 21:06:31;;;;;;;0.10;0.10;;;15.70;99.90;;;;;;10566938;27;20096;-62
2024/02/24 21:11:34;;;;;;;0.10;0.10;;;15.70;99.90;;;;;;10572242;27;20054;-63
2024/02/24 21:16:37;;;;;;;0.10;0.10;;;15.90;99.90;;;;;;10571146;27;21078;-62
2024/02/24 21:21:40;;;;;;;0.10;0.10;;;15.80;99.90;;;;;;10574057;27;20841;-61
2024/02/24 21:26:43;;;;;;;0.10;0.10;;;15.70;99.90;;;;;;10567800;27;20050;-61
2024/02/24 21:31:47;;;;;;;0.57;0.57;;;15.60;99.90;;;;;;10567406;27;20440;-61
2024/02/24 21:36:49;;;;;;;0.20;0.20;;;15.60;99.90;;;;;;10573019;27;20050;-62
2024/02/24 21:41:56;;;;;;;0.10;0.10;;;15.60;99.90;;;;;;10574544;27;20063;-62
2024/02/24 21:46:58;;;;;;;0.40;0.40;;;15.70;99.90;;;;;;10575496;27;20050;-62
2024/02/24 21:52:00;;;;;;;0.30;0.30;;;15.60;99.90;;;;;;10574066;27;20854;-63
2024/02/24 21:57:03;;;;;;;0.10;0.10;;;15.60;99.90;;;;;;10576604;27;20055;-61
2024/02/24 22:02:05;;;;;;;0.77;0.77;;;15.60;99.90;;;;;;10573964;27;20399;-61
2024/02/24 22:07:07;;;;;;;0.17;0.17;;;15.80;99.90;;;;;;10576883;27;20896;-63
2024/02/24 22:12:14;;;;;;;0.30;0.30;;;16.00;99.90;;;;;;10575749;27;20505;-63
2024/02/24 22:17:17;;;;;;;2.45;1.08;;;15.70;99.90;;;;;;10570566;27;20460;-62
2024/02/24 22:22:19;;;;;;;0.65;0.65;;;16.20;99.90;;;;;;10573909;27;20047;-63
2024/02/24 22:27:23;;;;;;;0.57;0.57;;;16.10;99.90;;;;;;10572509;27;20059;-61
2024/02/24 22:32:25;;;;;;;1.40;1.30;;;15.60;99.90;;;;;;10575332;27;20090;-62
2024/02/24 22:37:28;;;;;;;1.03;0.93;;;15.60;99.90;;;;;;10574671;27;20055;-61
2024/02/24 22:42:33;;;;;;;;;;;15.50;99.90;;;;;;10571898;27;20056;-61
2024/02/24 22:47:35;;;;;;;0.20;0.20;;;15.40;99.90;;;;;;10570914;27;19927;-61
2024/02/24 22:52:37;;;;;;;0.37;0.37;;;16.00;99.90;;;;;;10572120;27;20835;-61
2024/02/24 22:57:40;;;;;;;0.30;0.30;;;15.90;99.90;;;;;;10565839;27;20081;-62
2024/02/24 23:02:42;;;;;;;0.10;0.10;;;16.10;99.90;;;;;;10569437;27;20585;-62
2024/02/24 23:07:44;;;;;;;0.00;0.00;;;15.90;99.90;;;;;;10574459;27;20047;-64
2024/02/24 23:12:49;;;;;;;0.28;0.28;;;15.60;99.90;;;;;;10572612;27;20051;-63
2024/02/24 23:17:51;;;;;;;1.17;1.08;;;15.40;99.90;;;;;;10566182;27;20069;-61
2024/02/24 23:22:53;;;;;;;0.63;0.63;;;15.40;99.90;;;;;;10569685;27;20062;-62
2024/02/24 23:27:57;;;;;;;0.50;0.50;;;15.50;99.90;;;;;;10570129;27;20470;-62
2024/02/24 23:32:59;;;;;;;0.20;0.20;;;15.30;99.90;;;;;;10574245;27;20106;-61
2024/02/24 23:38:01;;;;;;;0.08;0.08;;;15.00;99.90;;;;;;10580198;27;20426;-62
2024/02/24 23:43:05;;;;;;;0.10;0.10;;;15.00;99.90;;;;;;10577620;27;20055;-62
2024/02/24 23:48:07;;;;;;;0.90;0.90;;;14.50;99.90;;;;;;10572290;27;20085;-62
2024/02/24 23:53:09;;;;;;;0.10;0.10;;;14.20;99.90;;;;;;10573762;27;20055;-60
2024/02/24 23:58:13;;;;;;;0.10;0.10;;;14.40;99.90;;;;;;10568486;27;20039;-63
